createdAt,value
2018-12-09T00:01:14.050Z,97757.44
2018-12-09T00:03:45.844Z,97756.53
2018-12-09T00:06:17.645Z,97757.44
2018-12-09T00:08:49.652Z,97760.47
2018-12-09T00:11:19.472Z,97763.81
2018-12-09T00:13:49.296Z,97768.87
2018-12-09T00:16:19.089Z,97760.31
2018-12-09T00:18:48.871Z,97747.63
2018-12-09T00:21:18.767Z,97749.76
2018-12-09T00:23:48.701Z,97737.75
2018-12-09T00:26:20.483Z,97734.55
2018-12-09T00:28:50.375Z,97752.45
2018-12-09T00:31:20.276Z,97746.11
2018-12-09T00:33:50.086Z,97747.38
2018-12-09T00:36:19.999Z,97743.56
2018-12-09T00:38:49.887Z,97750.19
2018-12-09T00:41:19.691Z,97756.20
2018-12-09T00:43:50.640Z,97752.22
2018-12-09T00:46:20.441Z,97749.24
2018-12-09T00:48:50.268Z,97752.73
2018-12-09T00:51:20.084Z,97766.07
2018-12-09T00:53:49.913Z,97753.45
2018-12-09T00:56:19.691Z,97754.59
2018-12-09T00:58:49.504Z,97752.62
2018-12-09T01:01:19.489Z,97767.81
2018-12-09T01:03:49.389Z,97757.80
2018-12-09T01:06:19.287Z,97760.87
2018-12-09T01:08:49.073Z,97777.31
2018-12-09T01:11:18.892Z,97767.13
2018-12-09T01:13:48.669Z,97761.03
2018-12-09T01:16:18.716Z,97739.30
2018-12-09T01:18:48.521Z,97722.52
2018-12-09T01:21:18.273Z,97715.93
2018-12-09T01:23:48.204Z,97718.72
2018-12-09T01:26:18.093Z,97719.72
2018-12-09T01:28:47.876Z,97717.30
2018-12-09T01:31:17.773Z,97717.59
2018-12-09T01:33:47.718Z,97722.22
2018-12-09T01:36:17.556Z,97707.69
2018-12-09T01:38:47.600Z,97715.63
2018-12-09T01:41:17.480Z,97718.23
2018-12-09T01:43:47.267Z,97720.69
2018-12-09T01:46:17.112Z,97725.81
2018-12-09T01:48:47.356Z,97747.62
2018-12-09T01:51:17.255Z,97745.23
2018-12-09T01:54:19.065Z,97695.55
2018-12-09T01:56:48.940Z,97712.26
2018-12-09T01:59:18.870Z,97689.30
2018-12-09T02:01:48.704Z,97707.12
2018-12-09T02:04:19.042Z,97719.98
2018-12-09T02:06:49.180Z,97724.36
2018-12-09T02:09:19.152Z,97729.55
2018-12-09T02:11:49.113Z,97724.34
2018-12-09T02:14:19.388Z,97735.19
2018-12-09T02:16:49.240Z,97718.88
2018-12-09T02:19:22.726Z,97718.72
2018-12-09T02:21:53.240Z,97730.66
2018-12-09T02:24:23.981Z,97712.73
2018-12-09T02:26:53.896Z,97695.41
2018-12-09T02:29:23.725Z,97715.02
2018-12-09T02:31:53.653Z,97715.45
2018-12-09T02:34:24.266Z,97734.61
2018-12-09T02:36:55.108Z,97736.33
2018-12-09T02:39:24.916Z,97755.16
2018-12-09T02:41:54.663Z,97747.75
2018-12-09T02:44:24.656Z,97739.92
2018-12-09T02:46:55.464Z,97751.97
2018-12-09T02:49:25.299Z,97737.02
2018-12-09T02:51:55.471Z,97739.38
2018-12-09T02:54:25.577Z,97745.48
2018-12-09T02:56:55.336Z,97728.21
2018-12-09T02:59:25.207Z,97728.47
2018-12-09T03:01:55.986Z,97729.12
2018-12-09T03:04:26.230Z,97730.85
2018-12-09T03:06:56.025Z,97722.42
2018-12-09T03:09:25.875Z,97722.26
2018-12-09T03:11:55.667Z,97724.64
2018-12-09T03:14:25.485Z,97724.02
2018-12-09T03:16:55.273Z,97736.05
2018-12-09T03:19:25.107Z,97723.84
2018-12-09T03:21:54.912Z,97731.64
2018-12-09T03:24:24.736Z,97736.75
2018-12-09T03:26:55.155Z,97744.06
2018-12-09T03:29:25.204Z,97767.36
2018-12-09T03:31:55.077Z,97779.19
2018-12-09T03:34:24.900Z,97778.08
2018-12-09T03:36:54.669Z,97775.73
2018-12-09T03:39:24.533Z,97756.94
2018-12-09T03:41:54.333Z,97763.84
2018-12-09T03:44:24.161Z,97739.51
2018-12-09T03:46:54.155Z,97719.69
2018-12-09T03:49:24.055Z,97738.44
2018-12-09T03:51:53.800Z,97742.31
2018-12-09T03:54:23.617Z,97723.31
2018-12-09T03:56:53.955Z,97731.89
2018-12-09T03:59:23.753Z,97687.30
2018-12-09T04:01:53.908Z,97686.66
2018-12-09T04:04:23.680Z,97697.41
2018-12-09T04:06:53.491Z,97690.91
2018-12-09T04:09:24.330Z,97702.50
2018-12-09T04:11:54.080Z,97695.30
2018-12-09T04:14:23.893Z,97707.20
2018-12-09T04:16:53.722Z,97716.30
2018-12-09T04:19:23.636Z,97715.78
2018-12-09T04:21:53.480Z,97725.33
2018-12-09T04:24:23.479Z,97741.44
2018-12-09T04:26:53.420Z,97736.99
2018-12-09T04:29:23.561Z,97742.77
2018-12-09T04:31:53.351Z,97745.33
2018-12-09T04:34:24.205Z,97748.42
2018-12-09T04:36:53.952Z,97738.64
2018-12-09T04:39:24.140Z,97742.55
2018-12-09T04:41:53.926Z,97723.77
2018-12-09T04:44:23.760Z,97750.20
2018-12-09T04:46:53.558Z,97770.64
2018-12-09T04:49:23.435Z,97758.98
2018-12-09T04:51:57.942Z,97760.53
2018-12-09T04:54:28.594Z,97773.23
2018-12-09T04:56:59.220Z,97750.87
2018-12-09T04:59:31.769Z,97761.50
2018-12-09T05:02:01.556Z,97732.31
2018-12-09T05:04:31.399Z,97771.22
2018-12-09T05:07:01.181Z,97786.34
2018-12-09T05:09:31.136Z,97792.02
2018-12-09T05:12:00.993Z,97811.22
2018-12-09T05:14:30.864Z,97812.91
2018-12-09T05:17:00.762Z,97807.24
2018-12-09T05:19:30.615Z,97799.17
2018-12-09T05:22:00.491Z,97798.71
2018-12-09T05:24:30.474Z,97786.01
2018-12-09T05:27:00.303Z,97800.40
2018-12-09T05:29:30.136Z,97796.78
2018-12-09T05:32:00.244Z,97797.98
2018-12-09T05:34:30.098Z,97793.75
2018-12-09T05:36:59.908Z,97784.11
2018-12-09T05:39:29.799Z,97784.69
2018-12-09T05:41:59.638Z,97781.94
2018-12-09T05:44:29.452Z,97773.48
2018-12-09T05:46:59.233Z,97780.34
2018-12-09T05:49:29.063Z,97781.80
2018-12-09T05:51:58.879Z,97797.39
2018-12-09T05:54:28.724Z,97816.70
2018-12-09T05:56:58.528Z,97827.84
2018-12-09T05:59:28.352Z,97842.56
2018-12-09T06:02:08.072Z,97865.28
2018-12-09T06:04:37.942Z,97871.57
2018-12-09T06:07:07.789Z,97867.44
2018-12-09T06:09:37.656Z,97861.16
2018-12-09T06:12:07.424Z,97863.93
2018-12-09T06:14:37.831Z,97874.81
2018-12-09T06:17:07.664Z,97882.69
2018-12-09T06:19:37.493Z,97901.41
2018-12-09T06:22:07.292Z,97916.48
2018-12-09T06:24:37.088Z,97891.34
2018-12-09T06:27:06.918Z,97897.48
2018-12-09T06:29:36.720Z,97889.13
2018-12-09T06:32:06.617Z,97893.25
2018-12-09T06:34:36.671Z,97897.34
2018-12-09T06:37:06.463Z,97888.53
2018-12-09T06:39:36.487Z,97907.13
2018-12-09T06:42:06.304Z,97901.70
2018-12-09T06:44:36.048Z,97911.22
2018-12-09T06:47:06.200Z,97926.56
2018-12-09T06:49:37.082Z,97914.16
2018-12-09T06:52:06.883Z,97927.31
2018-12-09T06:54:36.689Z,97917.56
2018-12-09T06:57:06.632Z,97928.54
2018-12-09T06:59:36.504Z,97925.19
2018-12-09T07:02:06.369Z,97942.47
2018-12-09T07:04:36.107Z,97946.95
2018-12-09T07:07:05.984Z,97948.38
2018-12-09T07:09:36.268Z,97948.77
2018-12-09T07:12:06.104Z,97961.95
2018-12-09T07:14:35.945Z,97951.67
2018-12-09T07:17:06.004Z,97987.95
2018-12-09T07:19:35.835Z,97980.22
2018-12-09T07:22:05.711Z,97978.89
2018-12-09T07:24:35.766Z,97985.05
2018-12-09T07:27:05.753Z,97982.84
2018-12-09T07:29:35.652Z,97985.97
2018-12-09T07:32:05.996Z,97981.11
2018-12-09T07:34:35.840Z,97997.43
2018-12-09T07:37:05.841Z,97985.93
2018-12-09T07:39:35.660Z,98002.61
2018-12-09T07:42:05.465Z,98006.69
2018-12-09T07:44:36.276Z,98012.88
2018-12-09T07:47:06.073Z,98009.84
2018-12-09T07:49:35.892Z,98019.03
2018-12-09T07:52:05.671Z,98028.34
2018-12-09T07:54:35.472Z,98030.16
2018-12-09T07:57:05.357Z,98029.45
2018-12-09T07:59:35.245Z,98045.55
2018-12-09T08:02:05.251Z,98044.38
2018-12-09T08:04:35.018Z,98047.28
2018-12-09T08:07:04.872Z,98052.36
2018-12-09T08:09:34.702Z,98043.69
2018-12-09T08:12:04.684Z,98042.13
2018-12-09T08:14:34.488Z,98058.09
2018-12-09T08:17:04.385Z,98052.55
2018-12-09T08:19:34.248Z,98051.09
2018-12-09T08:22:04.184Z,98053.29
2018-12-09T08:24:33.986Z,98059.94
2018-12-09T08:27:03.904Z,98051.60
2018-12-09T08:29:33.676Z,98043.27
2018-12-09T08:32:03.540Z,98050.27
2018-12-09T08:34:33.437Z,98048.44
2018-12-09T08:37:03.450Z,98041.92
2018-12-09T08:39:33.247Z,98054.14
2018-12-09T08:42:03.304Z,98062.01
2018-12-09T08:44:33.325Z,98059.69
2018-12-09T08:47:03.321Z,98045.03
2018-12-09T08:49:33.163Z,98051.07
2018-12-09T08:52:04.201Z,98054.34
2018-12-09T08:54:34.093Z,98051.29
2018-12-09T08:57:04.064Z,98042.13
2018-12-09T08:59:33.935Z,98049.95
2018-12-09T09:02:04.032Z,98050.33
2018-12-09T09:04:34.004Z,98050.89
2018-12-09T09:07:04.231Z,98054.41
2018-12-09T09:09:34.101Z,98038.03
2018-12-09T09:12:05.056Z,98035.02
2018-12-09T09:14:34.856Z,98037.08
2018-12-09T09:17:04.952Z,98044.21
2018-12-09T09:19:34.780Z,98038.27
2018-12-09T09:22:04.735Z,98057.52
2018-12-09T09:24:34.620Z,98049.52
2018-12-09T09:27:04.637Z,98057.72
2018-12-09T09:29:35.517Z,98033.23
2018-12-09T09:32:05.536Z,98039.34
2018-12-09T09:34:35.302Z,98042.84
2018-12-09T09:37:05.253Z,98045.05
2018-12-09T09:39:35.072Z,98042.47
2018-12-09T09:42:04.926Z,98029.05
2018-12-09T09:44:34.905Z,98023.88
2018-12-09T09:47:04.979Z,98030.81
2018-12-09T09:49:34.889Z,98026.27
2018-12-09T09:52:04.935Z,98007.86
2018-12-09T09:54:34.954Z,97996.47
2018-12-09T09:57:04.857Z,98004.20
2018-12-09T09:59:34.753Z,98004.18
2018-12-09T10:02:04.747Z,98010.36
2018-12-09T10:04:34.582Z,98016.81
2018-12-09T10:07:04.408Z,98023.60
2018-12-09T10:09:34.240Z,98029.66
2018-12-09T10:12:04.586Z,98026.00
2018-12-09T10:14:34.418Z,98032.67
2018-12-09T10:17:04.521Z,98031.61
2018-12-09T10:19:34.380Z,98020.98
2018-12-09T10:22:04.432Z,98026.20
2018-12-09T10:24:34.893Z,98029.48
2018-12-09T10:27:04.968Z,98042.06
2018-12-09T10:29:34.948Z,98042.72
2018-12-09T10:32:04.796Z,98034.44
2018-12-09T10:34:38.683Z,98032.98
2018-12-09T10:37:06.524Z,98033.56
2018-12-09T10:39:36.356Z,98023.65
2018-12-09T10:42:06.194Z,98029.83
2018-12-09T10:44:36.050Z,98028.59
2018-12-09T10:47:05.881Z,98021.55
2018-12-09T10:49:35.730Z,98043.62
2018-12-09T10:52:05.558Z,98041.67
2018-12-09T10:54:35.448Z,98014.44
2018-12-09T10:57:05.369Z,98009.20
2018-12-09T10:59:35.489Z,98009.69
2018-12-09T11:02:10.365Z,98015.30
2018-12-09T11:04:40.191Z,98004.09
2018-12-09T11:07:10.029Z,98024.56
2018-12-09T11:09:39.867Z,98001.41
2018-12-09T11:12:09.708Z,98010.87
2018-12-09T11:14:39.518Z,98021.34
2018-12-09T11:17:09.373Z,98020.39
2018-12-09T11:19:39.188Z,98016.31
2018-12-09T11:22:09.028Z,98007.41
2018-12-09T11:24:38.847Z,98014.55
2018-12-09T11:27:08.976Z,98009.39
2018-12-09T11:29:38.893Z,98004.53
2018-12-09T11:32:08.921Z,97995.97
2018-12-09T11:34:38.825Z,97988.31
2018-12-09T11:37:08.722Z,97990.69
2018-12-09T11:39:38.746Z,98007.68
2018-12-09T11:42:08.685Z,98019.87
2018-12-09T11:44:38.846Z,98015.87
2018-12-09T11:47:08.617Z,98016.66
2018-12-09T11:49:38.485Z,98040.87
2018-12-09T11:52:08.276Z,98044.98
2018-12-09T11:54:38.144Z,98049.81
2018-12-09T11:57:08.148Z,98052.59
2018-12-09T11:59:37.980Z,98050.12
2018-12-09T12:02:07.880Z,98059.09
2018-12-09T12:04:39.565Z,98061.90
2018-12-09T12:07:09.503Z,98062.02
2018-12-09T12:09:39.325Z,98036.77
2018-12-09T12:12:09.160Z,98027.67
2018-12-09T12:14:40.023Z,98031.95
2018-12-09T12:17:09.879Z,98033.11
2018-12-09T12:19:40.004Z,98039.95
2018-12-09T12:22:09.857Z,98038.25
2018-12-09T12:24:39.688Z,98029.92
2018-12-09T12:27:09.531Z,98013.85
2018-12-09T12:29:39.560Z,98026.41
2018-12-09T12:32:10.036Z,98012.19
2018-12-09T12:34:40.064Z,98018.63
2018-12-09T12:37:09.940Z,98015.81
2018-12-09T12:39:39.711Z,98016.16
2018-12-09T12:42:09.649Z,98027.55
2018-12-09T12:44:39.696Z,98002.42
2018-12-09T12:47:09.641Z,98007.81
2018-12-09T12:49:39.572Z,98014.02
2018-12-09T12:52:09.554Z,97996.94
2018-12-09T12:54:39.341Z,97996.35
2018-12-09T12:57:09.164Z,97981.28
2018-12-09T12:59:38.960Z,97968.87
2018-12-09T13:02:08.880Z,97974.59
2018-12-09T13:04:38.817Z,97977.53
2018-12-09T13:07:08.579Z,97956.42
2018-12-09T13:09:38.412Z,97984.42
2018-12-09T13:12:08.245Z,97977.47
2018-12-09T13:14:38.040Z,97977.64
2018-12-09T13:17:07.959Z,97971.05
2018-12-09T13:19:37.760Z,97992.06
2018-12-09T13:22:07.568Z,97967.63
2018-12-09T13:24:37.389Z,97969.23
2018-12-09T13:27:07.318Z,97980.76
2018-12-09T13:29:37.251Z,97987.89
2018-12-09T13:32:07.485Z,97975.66
2018-12-09T13:34:37.372Z,97989.87
2018-12-09T13:37:08.320Z,97969.95
2018-12-09T13:39:38.092Z,97978.84
2018-12-09T13:42:08.133Z,97966.83
2018-12-09T13:44:37.948Z,97973.94
2018-12-09T13:47:07.775Z,97964.39
2018-12-09T13:49:37.567Z,97981.51
2018-12-09T13:52:07.676Z,97970.77
2018-12-09T13:54:37.563Z,97978.80
2018-12-09T13:57:07.464Z,97981.66
2018-12-09T13:59:37.696Z,97976.09
2018-12-09T14:02:07.596Z,97976.77
2018-12-09T14:04:37.607Z,98007.36
2018-12-09T14:07:07.597Z,97980.94
2018-12-09T14:09:37.611Z,97977.25
2018-12-09T14:12:07.469Z,97978.69
2018-12-09T14:14:37.279Z,97983.98
2018-12-09T14:17:07.404Z,97953.54
2018-12-09T14:19:37.310Z,97971.98
2018-12-09T14:22:07.429Z,97973.78
2018-12-09T14:24:37.355Z,97984.23
2018-12-09T14:27:07.382Z,97988.45
2018-12-09T14:29:37.411Z,97996.45
2018-12-09T14:32:07.917Z,97997.37
2018-12-09T14:34:38.036Z,98000.74
2018-12-09T14:37:07.848Z,98008.62
2018-12-09T14:39:37.625Z,98016.53
2018-12-09T14:42:07.621Z,98001.70
2018-12-09T14:44:38.861Z,98014.06
2018-12-09T14:47:09.868Z,98022.80
2018-12-09T14:49:39.739Z,97999.35
2018-12-09T14:52:09.584Z,98011.20
2018-12-09T14:54:39.573Z,98009.14
2018-12-09T14:57:09.328Z,98021.11
2018-12-09T14:59:39.194Z,98012.41
2018-12-09T15:02:08.988Z,98029.80
2018-12-09T15:04:38.851Z,98016.16
2018-12-09T15:07:08.969Z,98020.39
2018-12-09T15:09:39.064Z,98019.65
2018-12-09T15:12:10.168Z,98014.83
2018-12-09T15:14:40.027Z,98024.38
2018-12-09T15:17:09.884Z,98026.05
2018-12-09T15:19:39.740Z,98025.35
2018-12-09T15:22:09.535Z,98032.73
2018-12-09T15:24:41.499Z,98034.80
2018-12-09T15:27:11.205Z,98051.25
2018-12-09T15:29:41.056Z,98044.46
2018-12-09T15:32:10.831Z,98047.47
2018-12-09T15:34:41.716Z,98044.46
2018-12-09T15:37:11.619Z,98037.56
2018-12-09T15:39:42.644Z,98056.30
2018-12-09T15:42:12.498Z,98068.90
2018-12-09T15:44:42.374Z,98084.38
2018-12-09T15:47:12.187Z,98080.38
2018-12-09T15:49:42.052Z,98063.33
2018-12-09T15:52:11.895Z,98076.15
2018-12-09T15:54:41.784Z,98092.95
2018-12-09T15:57:11.617Z,98103.11
2018-12-09T15:59:43.684Z,98137.00
2018-12-09T16:02:13.611Z,98127.06
2018-12-09T16:04:43.771Z,98116.66
2018-12-09T16:07:13.545Z,98128.63
2018-12-09T16:09:43.412Z,98143.86
2018-12-09T16:12:14.213Z,98148.92
2018-12-09T16:14:44.157Z,98155.97
2018-12-09T16:17:14.171Z,98153.66
2018-12-09T16:19:45.048Z,98139.37
2018-12-09T16:22:16.888Z,98146.12
2018-12-09T16:24:46.708Z,98144.33
2018-12-09T16:27:22.580Z,98156.91
2018-12-09T16:29:54.365Z,98158.98
2018-12-09T16:32:24.551Z,98154.50
2018-12-09T16:34:54.582Z,98169.02
2018-12-09T16:37:24.529Z,98180.88
2018-12-09T16:39:54.384Z,98174.86
2018-12-09T16:42:24.276Z,98185.28
2018-12-09T16:44:54.063Z,98190.01
2018-12-09T16:47:23.923Z,98194.73
2018-12-09T16:49:53.953Z,98196.91
2018-12-09T16:52:23.944Z,98199.33
2018-12-09T16:54:53.776Z,98199.81
2018-12-09T16:57:23.661Z,98201.15
2018-12-09T16:59:53.460Z,98197.78
2018-12-09T17:02:23.431Z,98198.98
2018-12-09T17:04:53.702Z,98203.71
2018-12-09T17:07:23.553Z,98216.92
2018-12-09T17:09:53.580Z,98230.69
2018-12-09T17:12:23.648Z,98224.28
2018-12-09T17:14:53.452Z,98219.83
2018-12-09T17:17:23.272Z,98238.33
2018-12-09T17:19:53.117Z,98221.76
2018-12-09T17:22:23.267Z,98235.56
2018-12-09T17:24:53.279Z,98227.53
2018-12-09T17:27:30.228Z,98245.56
2018-12-09T17:30:00.138Z,98236.23
2018-12-09T17:32:30.576Z,98243.98
2018-12-09T17:35:00.450Z,98258.48
2018-12-09T17:37:30.337Z,98271.20
2018-12-09T17:40:00.377Z,98270.59
2018-12-09T17:42:30.224Z,98264.67
2018-12-09T17:45:00.204Z,98273.92
2018-12-09T17:47:30.444Z,98274.16
2018-12-09T17:50:00.388Z,98283.55
2018-12-09T17:52:30.222Z,98296.25
2018-12-09T17:55:00.262Z,98294.18
2018-12-09T17:57:30.360Z,98299.50
2018-12-09T18:00:00.775Z,98305.16
2018-12-09T18:02:31.756Z,98310.61
2018-12-09T18:05:01.601Z,98317.09
2018-12-09T18:07:31.494Z,98327.64
2018-12-09T18:10:01.356Z,98342.17
2018-12-09T18:12:31.196Z,98347.49
2018-12-09T18:15:01.104Z,98339.31
2018-12-09T18:17:32.047Z,98341.35
2018-12-09T18:20:01.937Z,98346.32
2018-12-09T18:22:31.801Z,98349.05
2018-12-09T18:25:02.380Z,98360.70
2018-12-09T18:27:32.294Z,98367.25
2018-12-09T18:30:02.068Z,98361.92
2018-12-09T18:32:32.426Z,98372.16
2018-12-09T18:35:02.381Z,98368.48
2018-12-09T18:37:32.600Z,98378.77
2018-12-09T18:40:04.031Z,98393.98
2018-12-09T18:42:34.187Z,98394.80
2018-12-09T18:45:05.921Z,98407.73
2018-12-09T18:47:36.046Z,98422.38
2018-12-09T18:50:07.055Z,98420.88
2018-12-09T18:52:36.996Z,98428.50
2018-12-09T18:55:07.216Z,98432.22
2018-12-09T18:57:38.186Z,98436.31
2018-12-09T19:00:08.341Z,98434.62
2018-12-09T19:02:38.364Z,98443.77
2018-12-09T19:05:08.277Z,98447.27
2018-12-09T19:07:38.188Z,98455.24
2018-12-09T19:10:08.208Z,98464.06
2018-12-09T19:12:38.049Z,98468.05
2018-12-09T19:15:10.025Z,98454.56
2018-12-09T19:17:39.854Z,98465.39
2018-12-09T19:20:09.828Z,98461.63
2018-12-09T19:22:39.665Z,98462.55
2018-12-09T19:25:09.641Z,98464.06
2018-12-09T19:27:39.460Z,98465.88
2018-12-09T19:30:09.248Z,98457.95
2018-12-09T19:32:39.117Z,98454.05
2018-12-09T19:35:09.021Z,98461.93
2018-12-09T19:37:39.867Z,98466.41
2018-12-09T19:40:09.628Z,98469.98
2018-12-09T19:42:39.454Z,98486.59
2018-12-09T19:45:09.385Z,98495.92
2018-12-09T19:47:39.230Z,98500.52
2018-12-09T19:50:09.891Z,98502.02
2018-12-09T19:52:40.388Z,98507.83
2018-12-09T19:55:10.281Z,98517.67
2018-12-09T19:57:40.292Z,98526.48
2018-12-09T20:00:10.173Z,98532.41
2018-12-09T20:02:40.014Z,98528.99
2018-12-09T20:05:10.256Z,98538.08
2018-12-09T20:07:40.692Z,98540.25
2018-12-09T20:10:10.664Z,98543.03
2018-12-09T20:12:40.533Z,98542.76
2018-12-09T20:15:10.540Z,98534.67
2018-12-09T20:17:40.421Z,98544.09
2018-12-09T20:20:10.552Z,98548.16
2018-12-09T20:22:41.387Z,98540.19
2018-12-09T20:25:11.210Z,98539.77
2018-12-09T20:27:41.193Z,98536.84
2018-12-09T20:30:11.347Z,98543.58
2018-12-09T20:32:41.468Z,98549.95
2018-12-09T20:35:11.401Z,98557.31
2018-12-09T20:37:41.560Z,98553.45
2018-12-09T20:40:11.417Z,98552.40
2018-12-09T20:42:48.034Z,98551.64
2018-12-09T20:45:13.049Z,98554.57
2018-12-09T20:47:42.965Z,98557.41
2018-12-09T20:50:12.905Z,98560.61
2018-12-09T20:52:42.876Z,98567.11
2018-12-09T20:55:13.121Z,98564.72
2018-12-09T20:57:42.969Z,98567.92
2018-12-09T21:00:13.116Z,98577.59
2018-12-09T21:02:43.223Z,98581.84
2018-12-09T21:05:13.432Z,98589.70
2018-12-09T21:07:43.276Z,98596.77
2018-12-09T21:10:13.073Z,98596.67
2018-12-09T21:12:42.863Z,98596.89
2018-12-09T21:15:12.897Z,98608.47
2018-12-09T21:17:42.737Z,98627.86
2018-12-09T21:20:12.899Z,98634.64
2018-12-09T21:22:43.032Z,98647.75
2018-12-09T21:25:13.084Z,98650.20
2018-12-09T21:27:43.104Z,98663.22
2018-12-09T21:30:12.992Z,98671.61
2018-12-09T21:32:42.804Z,98689.58
2018-12-09T21:35:12.897Z,98692.73
2018-12-09T21:37:43.585Z,98695.77
2018-12-09T21:40:13.472Z,98693.34
2018-12-09T21:42:43.649Z,98707.44
2018-12-09T21:45:13.951Z,98697.37
2018-12-09T21:47:44.752Z,98701.95
2018-12-09T21:50:15.060Z,98715.03
2018-12-09T21:52:45.197Z,98715.90
2018-12-09T21:55:15.317Z,98721.67
2018-12-09T21:57:45.164Z,98729.27
2018-12-09T22:00:16.220Z,98740.73
2018-12-09T22:02:46.118Z,98738.36
2018-12-09T22:05:16.000Z,98735.70
2018-12-09T22:07:45.906Z,98742.34
2018-12-09T22:10:15.737Z,98751.63
2018-12-09T22:12:46.233Z,98757.91
2018-12-09T22:15:16.241Z,98769.28
2018-12-09T22:17:46.845Z,98771.18
2018-12-09T22:20:16.831Z,98776.58
2018-12-09T22:22:46.712Z,98780.85
2018-12-09T22:25:16.780Z,98786.36
2018-12-09T22:27:46.596Z,98789.13
2018-12-09T22:30:16.504Z,98794.13
2018-12-09T22:32:46.389Z,98797.16
2018-12-09T22:35:16.313Z,98803.00
2018-12-09T22:37:46.182Z,98805.63
2018-12-09T22:40:16.241Z,98809.44
2018-12-09T22:42:46.760Z,98825.36
2018-12-09T22:45:16.596Z,98824.45
2018-12-09T22:47:46.419Z,98835.33
2018-12-09T22:50:16.409Z,98839.94
2018-12-09T22:52:46.344Z,98831.42
2018-12-09T22:55:16.779Z,98838.85
2018-12-09T22:57:46.768Z,98838.33
2018-12-09T23:00:25.833Z,98829.23
2018-12-09T23:03:03.115Z,98833.80
2018-12-09T23:05:33.244Z,98837.00
2018-12-09T23:08:03.196Z,98839.95
2018-12-09T23:10:33.176Z,98841.69
2018-12-09T23:13:03.344Z,98849.16
2018-12-09T23:15:33.200Z,98856.27
2018-12-09T23:18:03.079Z,98860.11
2018-12-09T23:20:32.954Z,98866.22
2018-12-09T23:23:02.819Z,98869.00
2018-12-09T23:25:33.278Z,98871.26
2018-12-09T23:28:03.164Z,98871.66
2018-12-09T23:30:32.917Z,98879.40
2018-12-09T23:33:02.815Z,98885.73
2018-12-09T23:35:32.659Z,98892.42
2018-12-09T23:38:02.455Z,98885.20
2018-12-09T23:40:32.312Z,98902.30
2018-12-09T23:43:02.336Z,98901.59
2018-12-09T23:45:32.220Z,98901.11
2018-12-09T23:48:03.060Z,98908.66
2018-12-09T23:50:33.159Z,98911.01
2018-12-09T23:53:02.991Z,98909.55
2018-12-09T23:55:32.827Z,98919.39
2018-12-09T23:58:02.599Z,98921.84
